createdAt,value
2019-01-29T00:01:32.746Z,2.86
2019-01-29T00:04:03.717Z,2.86
2019-01-29T00:06:34.607Z,2.89
2019-01-29T00:09:09.968Z,2.98
2019-01-29T00:11:41.786Z,2.92
2019-01-29T00:14:13.725Z,3.05
2019-01-29T00:16:45.170Z,3.02
2019-01-29T00:19:16.600Z,3.01
2019-01-29T00:21:48.732Z,3.00
2019-01-29T00:24:19.743Z,2.94
2019-01-29T00:26:50.708Z,2.92
2019-01-29T00:29:22.840Z,2.96
2019-01-29T00:31:57.516Z,2.87
2019-01-29T00:34:29.836Z,2.89
2019-01-29T00:37:00.854Z,2.95
2019-01-29T00:39:31.724Z,2.97
2019-01-29T00:42:02.913Z,2.91
2019-01-29T00:44:34.908Z,2.91
2019-01-29T00:47:06.846Z,2.90
2019-01-29T00:49:37.928Z,2.82
2019-01-29T00:52:09.296Z,2.72
2019-01-29T00:54:39.836Z,2.72
2019-01-29T00:57:11.006Z,2.82
2019-01-29T00:59:41.923Z,2.83
2019-01-29T01:02:12.950Z,2.83
2019-01-29T01:04:43.890Z,2.78
2019-01-29T01:07:14.855Z,2.85
2019-01-29T01:09:45.962Z,2.83
2019-01-29T01:12:16.732Z,2.94
2019-01-29T01:14:48.053Z,2.90
2019-01-29T01:17:20.024Z,2.88
2019-01-29T01:19:53.231Z,2.88
2019-01-29T01:22:26.122Z,2.82
2019-01-29T01:24:57.068Z,2.91
2019-01-29T01:27:29.017Z,2.88
2019-01-29T01:30:00.049Z,2.97
2019-01-29T01:32:33.096Z,2.95
2019-01-29T01:35:03.944Z,2.95
2019-01-29T01:37:34.895Z,2.99
2019-01-29T01:40:08.596Z,3.02
2019-01-29T01:42:40.178Z,2.89
2019-01-29T01:45:11.282Z,2.89
2019-01-29T01:47:44.110Z,2.89
2019-01-29T01:50:15.430Z,2.90
2019-01-29T01:52:48.396Z,2.88
2019-01-29T01:55:20.362Z,2.92
2019-01-29T01:57:52.993Z,2.95
2019-01-29T02:00:26.323Z,2.95
2019-01-29T02:02:59.089Z,2.98
2019-01-29T02:05:29.952Z,2.96
2019-01-29T02:08:00.969Z,2.96
2019-01-29T02:10:31.774Z,3.03
2019-01-29T02:13:02.957Z,2.98
2019-01-29T02:15:33.302Z,3.00
2019-01-29T02:18:04.635Z,3.04
2019-01-29T02:20:35.654Z,3.02
2019-01-29T02:23:08.167Z,3.00
2019-01-29T02:25:40.335Z,3.11
2019-01-29T02:28:11.284Z,3.12
2019-01-29T02:30:42.509Z,3.11
2019-01-29T02:33:13.399Z,3.20
2019-01-29T02:35:44.202Z,3.21
2019-01-29T02:38:15.410Z,3.20
2019-01-29T02:40:46.303Z,3.20
2019-01-29T02:43:16.717Z,3.26
2019-01-29T02:45:48.369Z,3.26
2019-01-29T02:48:20.367Z,3.30
2019-01-29T02:50:53.427Z,3.27
2019-01-29T02:53:24.411Z,3.29
2019-01-29T02:55:57.417Z,3.33
2019-01-29T02:58:28.532Z,3.28
2019-01-29T03:01:00.502Z,3.29
2019-01-29T03:03:31.589Z,3.39
2019-01-29T03:06:04.622Z,3.32
2019-01-29T03:08:35.586Z,3.26
2019-01-29T03:11:06.580Z,3.25
2019-01-29T03:13:37.532Z,3.25
2019-01-29T03:16:09.613Z,3.27
2019-01-29T03:18:42.604Z,3.24
2019-01-29T03:21:13.452Z,3.24
2019-01-29T03:23:44.419Z,3.21
2019-01-29T03:26:15.334Z,3.21
2019-01-29T03:28:46.346Z,3.26
2019-01-29T03:31:18.451Z,3.26
2019-01-29T03:33:53.107Z,3.23
2019-01-29T03:36:24.441Z,3.31
2019-01-29T03:38:55.634Z,3.21
2019-01-29T03:41:27.752Z,3.16
2019-01-29T03:44:00.566Z,3.16
2019-01-29T03:46:31.713Z,3.21
2019-01-29T03:49:02.655Z,3.18
2019-01-29T03:51:33.565Z,3.16
2019-01-29T03:54:04.776Z,3.20
2019-01-29T03:56:37.350Z,3.20
2019-01-29T03:59:09.590Z,3.13
2019-01-29T04:01:39.958Z,3.16
2019-01-29T04:04:10.661Z,3.15
2019-01-29T04:06:43.417Z,3.15
2019-01-29T04:09:14.048Z,3.13
2019-01-29T04:11:46.630Z,3.12
2019-01-29T04:14:16.983Z,3.14
2019-01-29T04:16:48.709Z,3.15
2019-01-29T04:19:20.342Z,3.15
2019-01-29T04:21:51.267Z,3.10
2019-01-29T04:24:21.810Z,3.12
2019-01-29T04:26:52.875Z,3.19
2019-01-29T04:29:24.281Z,3.12
2019-01-29T04:31:54.746Z,3.12
2019-01-29T04:34:25.821Z,3.08
2019-01-29T04:36:56.165Z,3.12
2019-01-29T04:39:27.150Z,3.10
2019-01-29T04:42:01.500Z,3.08
2019-01-29T04:44:32.975Z,3.02
2019-01-29T04:47:03.876Z,3.06
2019-01-29T04:49:34.896Z,3.11
2019-01-29T04:52:05.948Z,3.13
2019-01-29T04:54:36.962Z,3.11
2019-01-29T04:57:07.879Z,3.11
2019-01-29T04:59:39.052Z,3.11
2019-01-29T05:02:09.546Z,3.14
2019-01-29T05:04:40.081Z,3.09
2019-01-29T05:07:10.911Z,3.02
2019-01-29T05:09:42.055Z,3.06
2019-01-29T05:12:12.974Z,3.06
2019-01-29T05:14:43.915Z,3.00
2019-01-29T05:17:15.067Z,3.00
2019-01-29T05:19:46.024Z,3.06
2019-01-29T05:22:16.973Z,3.01
2019-01-29T05:24:48.151Z,3.03
2019-01-29T05:27:19.595Z,3.05
2019-01-29T05:29:51.010Z,3.02
2019-01-29T05:32:22.126Z,3.00
2019-01-29T05:34:53.110Z,3.00
2019-01-29T05:37:24.022Z,2.97
2019-01-29T05:39:55.198Z,2.99
2019-01-29T05:42:26.092Z,2.96
2019-01-29T05:44:57.246Z,2.93
2019-01-29T05:47:28.173Z,2.92
2019-01-29T05:49:59.171Z,2.86
2019-01-29T05:52:30.155Z,2.84
2019-01-29T05:55:01.153Z,2.80
2019-01-29T05:57:32.272Z,2.76
2019-01-29T06:00:03.386Z,2.75
2019-01-29T06:02:34.289Z,2.78
2019-01-29T06:05:06.706Z,2.78
2019-01-29T06:07:37.132Z,2.78
2019-01-29T06:10:10.703Z,2.70
2019-01-29T06:12:42.193Z,2.69
2019-01-29T06:15:16.731Z,2.66
2019-01-29T06:17:49.273Z,2.69
2019-01-29T06:20:22.232Z,2.64
2019-01-29T06:22:54.305Z,2.64
2019-01-29T06:25:25.549Z,2.63
2019-01-29T06:27:56.347Z,2.64
2019-01-29T06:30:27.630Z,2.68
2019-01-29T06:32:58.387Z,2.67
2019-01-29T06:35:29.303Z,2.73
2019-01-29T06:38:01.879Z,2.74
2019-01-29T06:40:34.293Z,2.78
2019-01-29T06:43:07.495Z,2.82
2019-01-29T06:45:38.417Z,2.85
2019-01-29T06:48:09.449Z,2.91
2019-01-29T06:50:40.500Z,2.91
2019-01-29T06:53:11.485Z,2.94
2019-01-29T06:55:42.435Z,2.92
2019-01-29T06:58:13.565Z,3.03
2019-01-29T07:00:44.633Z,3.13
2019-01-29T07:03:15.611Z,3.13
2019-01-29T07:05:46.464Z,3.12
2019-01-29T07:08:17.171Z,3.24
2019-01-29T07:10:48.556Z,3.31
2019-01-29T07:13:20.558Z,3.32
2019-01-29T07:16:12.530Z,3.37
2019-01-29T07:18:46.559Z,3.40
2019-01-29T07:21:16.973Z,3.40
2019-01-29T07:23:47.646Z,3.33
2019-01-29T07:26:18.516Z,3.33
2019-01-29T07:28:49.554Z,3.43
2019-01-29T07:31:20.547Z,3.43
2019-01-29T07:33:51.488Z,3.54
2019-01-29T07:36:22.629Z,3.53
2019-01-29T07:38:53.403Z,3.43
2019-01-29T07:41:23.765Z,3.51
2019-01-29T07:43:54.621Z,3.58
2019-01-29T07:46:26.020Z,3.69
2019-01-29T07:48:56.730Z,3.69
2019-01-29T07:51:27.974Z,3.84
2019-01-29T07:53:59.289Z,3.80
2019-01-29T07:56:29.875Z,3.85
2019-01-29T07:59:00.733Z,3.85
2019-01-29T08:01:31.570Z,3.91
2019-01-29T08:04:02.651Z,3.91
2019-01-29T08:06:33.488Z,3.64
2019-01-29T08:09:05.740Z,3.57
2019-01-29T08:11:38.862Z,3.57
2019-01-29T08:14:09.828Z,3.50
2019-01-29T08:16:40.214Z,3.38
2019-01-29T08:19:10.864Z,3.31
2019-01-29T08:21:41.940Z,3.43
2019-01-29T08:24:14.603Z,3.54
2019-01-29T08:26:46.947Z,3.59
2019-01-29T08:29:17.320Z,3.73
2019-01-29T08:31:48.829Z,3.91
2019-01-29T08:34:20.997Z,3.91
2019-01-29T08:36:53.984Z,4.08
2019-01-29T08:39:27.015Z,4.08
2019-01-29T08:41:58.966Z,4.09
2019-01-29T08:44:29.949Z,3.93
2019-01-29T08:47:00.918Z,3.83
2019-01-29T08:49:32.099Z,3.73
2019-01-29T08:52:02.900Z,3.68
2019-01-29T08:54:33.920Z,3.55
2019-01-29T08:57:06.609Z,3.55
2019-01-29T08:59:38.723Z,3.50
2019-01-29T09:02:09.104Z,3.50
2019-01-29T09:04:45.097Z,3.84
2019-01-29T09:07:17.271Z,3.84
2019-01-29T09:09:49.063Z,3.91
2019-01-29T09:12:21.042Z,3.91
2019-01-29T09:14:53.053Z,3.89
2019-01-29T09:17:24.021Z,4.00
2019-01-29T09:19:56.015Z,4.00
2019-01-29T09:22:28.130Z,4.04
2019-01-29T09:25:01.077Z,4.04
2019-01-29T09:27:34.129Z,4.00
2019-01-29T09:30:06.836Z,4.18
2019-01-29T09:32:39.097Z,4.21
2019-01-29T09:35:10.327Z,4.35
2019-01-29T09:37:41.207Z,4.42
2019-01-29T09:40:14.834Z,4.37
2019-01-29T09:42:46.209Z,4.37
2019-01-29T09:45:18.261Z,4.46
2019-01-29T09:47:51.280Z,4.32
2019-01-29T09:50:24.177Z,4.15
2019-01-29T09:52:55.399Z,4.16
2019-01-29T09:55:29.558Z,4.16
2019-01-29T09:58:01.363Z,4.11
2019-01-29T10:00:34.391Z,4.11
2019-01-29T10:03:06.461Z,4.22
2019-01-29T10:05:37.435Z,4.20
2019-01-29T10:08:08.429Z,4.24
2019-01-29T10:10:39.379Z,4.23
2019-01-29T10:13:10.310Z,4.21
2019-01-29T10:15:41.276Z,4.24
2019-01-29T10:18:12.405Z,4.31
2019-01-29T10:20:43.319Z,4.31
2019-01-29T10:23:14.400Z,4.38
2019-01-29T10:25:45.476Z,4.38
2019-01-29T10:28:17.353Z,4.38
2019-01-29T10:30:49.370Z,4.38
2019-01-29T10:33:20.486Z,4.44
2019-01-29T10:35:51.463Z,4.36
2019-01-29T10:38:23.412Z,4.66
2019-01-29T10:40:56.417Z,4.66
2019-01-29T10:43:27.438Z,4.66
2019-01-29T10:45:58.619Z,4.75
2019-01-29T10:48:29.490Z,4.72
2019-01-29T10:51:00.543Z,4.72
2019-01-29T10:53:33.595Z,4.78
2019-01-29T10:56:04.502Z,4.79
2019-01-29T10:58:38.734Z,4.73
2019-01-29T11:01:09.701Z,4.66
2019-01-29T11:03:40.712Z,4.76
2019-01-29T11:06:11.516Z,4.83
2019-01-29T11:08:42.578Z,4.98
2019-01-29T11:11:13.484Z,5.14
2019-01-29T11:13:44.511Z,5.20
2019-01-29T11:16:15.468Z,5.07
2019-01-29T11:18:46.561Z,4.93
2019-01-29T11:21:17.615Z,4.95
2019-01-29T11:23:48.367Z,4.95
2019-01-29T11:26:19.237Z,5.13
2019-01-29T11:28:49.734Z,5.14
2019-01-29T11:31:20.715Z,5.13
2019-01-29T11:33:51.747Z,5.18
2019-01-29T11:36:23.041Z,5.06
2019-01-29T11:38:53.639Z,5.04
2019-01-29T11:41:24.822Z,4.90
2019-01-29T11:43:55.857Z,4.85
2019-01-29T11:46:26.711Z,4.86
2019-01-29T11:49:02.702Z,4.95
2019-01-29T11:51:48.286Z,4.81
2019-01-29T11:54:20.859Z,4.81
2019-01-29T11:56:51.811Z,4.78
2019-01-29T11:59:23.793Z,4.89
2019-01-29T12:01:55.779Z,5.24
2019-01-29T12:04:27.843Z,5.22
2019-01-29T12:07:00.861Z,5.41
2019-01-29T12:09:32.033Z,5.66
2019-01-29T12:12:02.952Z,5.67
2019-01-29T12:14:35.853Z,5.67
2019-01-29T12:17:07.814Z,5.96
2019-01-29T12:19:38.959Z,6.00
2019-01-29T12:22:10.229Z,5.83
2019-01-29T12:24:40.924Z,5.84
2019-01-29T12:27:11.909Z,5.72
2019-01-29T12:29:42.959Z,5.67
2019-01-29T12:32:13.893Z,5.82
2019-01-29T12:34:44.719Z,5.80
2019-01-29T12:37:25.368Z,5.92
2019-01-29T12:39:59.501Z,6.01
2019-01-29T12:42:30.016Z,5.83
2019-01-29T12:45:03.190Z,5.88
2019-01-29T12:47:34.014Z,5.72
2019-01-29T12:50:08.415Z,5.72
2019-01-29T12:52:57.495Z,5.77
2019-01-29T12:55:29.181Z,5.75
2019-01-29T12:58:00.158Z,5.65
2019-01-29T13:00:36.138Z,5.39
2019-01-29T13:03:11.354Z,5.55
2019-01-29T13:05:41.804Z,5.67
2019-01-29T13:08:12.321Z,5.84
2019-01-29T13:10:43.224Z,5.56
2019-01-29T13:13:14.262Z,5.61
2019-01-29T13:15:45.067Z,5.31
2019-01-29T13:18:16.277Z,5.41
2019-01-29T13:20:47.248Z,5.54
2019-01-29T13:23:17.622Z,5.40
2019-01-29T13:25:49.243Z,5.33
2019-01-29T13:28:20.323Z,5.10
2019-01-29T13:30:51.185Z,5.11
2019-01-29T13:33:22.161Z,4.96
2019-01-29T13:35:53.199Z,4.92
2019-01-29T13:38:24.075Z,5.07
2019-01-29T13:40:55.119Z,4.93
2019-01-29T13:43:26.218Z,4.75
2019-01-29T13:45:57.290Z,4.96
2019-01-29T13:48:28.251Z,5.25
2019-01-29T13:51:00.887Z,5.48
2019-01-29T13:53:33.399Z,5.93
2019-01-29T13:56:04.368Z,5.94
2019-01-29T13:58:35.357Z,5.87
2019-01-29T14:01:06.707Z,5.89
2019-01-29T14:03:37.394Z,5.78
2019-01-29T14:06:11.407Z,6.04
2019-01-29T14:08:42.441Z,6.13
2019-01-29T14:11:13.462Z,6.46
2019-01-29T14:13:44.524Z,6.45
2019-01-29T14:16:15.420Z,6.13
2019-01-29T14:18:46.567Z,5.79
2019-01-29T14:21:17.550Z,5.74
2019-01-29T14:23:48.518Z,5.58
2019-01-29T14:26:21.535Z,5.68
2019-01-29T14:28:54.559Z,6.01
2019-01-29T14:31:27.500Z,5.65
2019-01-29T14:34:02.157Z,5.66
2019-01-29T14:36:34.598Z,5.70
2019-01-29T14:39:53.811Z,5.37
2019-01-29T14:42:24.488Z,5.67
2019-01-29T14:44:57.195Z,5.57
2019-01-29T14:47:29.447Z,5.22
2019-01-29T14:50:01.716Z,5.16
2019-01-29T14:52:34.633Z,4.99
2019-01-29T14:55:06.878Z,4.80
2019-01-29T14:57:41.103Z,4.77
2019-01-29T15:00:19.969Z,4.46
2019-01-29T15:02:51.709Z,4.44
2019-01-29T15:05:24.655Z,4.47
2019-01-29T15:07:55.689Z,4.57
2019-01-29T15:10:27.844Z,4.49
2019-01-29T15:12:58.740Z,4.32
2019-01-29T15:15:33.389Z,4.45
2019-01-29T15:18:13.530Z,4.78
2019-01-29T15:20:44.891Z,4.96
2019-01-29T15:23:16.833Z,4.71
2019-01-29T15:25:48.025Z,5.04
2019-01-29T15:28:18.347Z,5.25
2019-01-29T15:30:49.646Z,5.25
2019-01-29T15:33:20.772Z,4.86
2019-01-29T15:35:51.857Z,4.53
2019-01-29T15:38:24.794Z,4.34
2019-01-29T15:40:55.942Z,4.17
2019-01-29T15:43:26.858Z,4.00
2019-01-29T15:45:59.023Z,3.88
2019-01-29T15:48:29.842Z,3.74
2019-01-29T15:51:01.318Z,3.55
2019-01-29T15:53:32.273Z,3.30
2019-01-29T15:56:02.894Z,3.30
2019-01-29T15:58:33.823Z,3.12
2019-01-29T16:01:04.886Z,3.12
2019-01-29T16:03:36.002Z,2.96
2019-01-29T16:06:06.770Z,2.96
2019-01-29T16:08:37.942Z,2.92
2019-01-29T16:11:10.240Z,2.90
2019-01-29T16:13:42.883Z,2.82
2019-01-29T16:16:14.187Z,2.72
2019-01-29T16:18:45.121Z,2.69
2019-01-29T16:21:15.936Z,2.66
2019-01-29T16:23:47.044Z,2.69
2019-01-29T16:26:17.860Z,2.66
2019-01-29T16:28:51.046Z,2.66
2019-01-29T16:31:24.074Z,2.56
2019-01-29T16:33:56.923Z,2.63
2019-01-29T16:36:28.096Z,2.56
2019-01-29T16:39:00.123Z,2.50
2019-01-29T16:41:33.107Z,2.50
2019-01-29T16:44:04.164Z,2.48
2019-01-29T16:46:37.184Z,2.45
2019-01-29T16:49:08.051Z,2.46
2019-01-29T16:51:42.166Z,2.38
2019-01-29T16:54:12.754Z,2.27
2019-01-29T16:56:44.309Z,2.21
2019-01-29T16:59:16.246Z,2.15
2019-01-29T17:01:49.216Z,2.06
2019-01-29T17:04:20.101Z,1.93
2019-01-29T17:06:51.254Z,1.91
2019-01-29T17:09:24.365Z,1.90
2019-01-29T17:11:56.338Z,1.90
2019-01-29T17:14:27.375Z,1.88
2019-01-29T17:16:58.253Z,1.87
2019-01-29T17:19:28.621Z,1.81
2019-01-29T17:22:01.198Z,1.81
2019-01-29T17:24:31.564Z,1.79
2019-01-29T17:27:03.367Z,1.74
2019-01-29T17:29:35.282Z,1.66
2019-01-29T17:32:07.354Z,1.63
2019-01-29T17:34:40.315Z,1.71
2019-01-29T17:37:12.294Z,1.76
2019-01-29T17:39:44.083Z,1.71
2019-01-29T17:42:14.473Z,1.66
2019-01-29T17:44:45.439Z,1.69
2019-01-29T17:47:16.383Z,1.63
2019-01-29T17:49:47.669Z,1.58
2019-01-29T17:52:18.276Z,1.48
2019-01-29T17:54:49.688Z,1.48
2019-01-29T17:57:20.424Z,1.33
2019-01-29T17:59:51.507Z,1.29
2019-01-29T18:02:24.158Z,1.23
2019-01-29T18:04:56.588Z,1.22
2019-01-29T18:07:27.545Z,1.09
2019-01-29T18:09:58.422Z,1.23
2019-01-29T18:12:29.563Z,1.20
2019-01-29T18:15:00.563Z,1.15
2019-01-29T18:17:33.224Z,0.87
2019-01-29T18:20:05.920Z,0.64
2019-01-29T18:22:36.569Z,0.72
2019-01-29T18:25:08.004Z,0.69
2019-01-29T18:27:38.619Z,0.90
2019-01-29T18:30:13.053Z,0.84
2019-01-29T18:32:43.800Z,0.77
2019-01-29T18:35:14.778Z,0.75
2019-01-29T18:37:47.627Z,0.58
2019-01-29T18:40:23.500Z,0.39
2019-01-29T18:42:55.738Z,0.35
2019-01-29T18:45:26.927Z,0.56
2019-01-29T18:47:57.725Z,0.51
2019-01-29T18:50:29.061Z,0.53
2019-01-29T18:52:59.701Z,0.75
2019-01-29T18:55:30.578Z,0.75
2019-01-29T18:58:11.200Z,0.73
2019-01-29T19:00:35.812Z,0.82
2019-01-29T19:03:06.857Z,0.74
2019-01-29T19:05:37.764Z,0.83
2019-01-29T19:08:08.776Z,0.72
2019-01-29T19:10:40.172Z,0.65
2019-01-29T19:13:12.908Z,0.48
2019-01-29T19:15:43.802Z,0.45
2019-01-29T19:18:14.843Z,0.46
2019-01-29T19:20:45.705Z,0.39
2019-01-29T19:23:16.881Z,0.28
2019-01-29T19:25:47.853Z,0.24
2019-01-29T19:28:22.053Z,0.17
2019-01-29T19:30:53.024Z,0.22
2019-01-29T19:33:24.815Z,0.23
2019-01-29T19:35:57.887Z,0.28
2019-01-29T19:38:28.815Z,0.21
2019-01-29T19:40:59.742Z,-0.02
2019-01-29T19:43:30.581Z,-0.12
2019-01-29T19:46:00.976Z,-0.24
2019-01-29T19:48:32.475Z,-0.15
2019-01-29T19:51:02.878Z,-0.03
2019-01-29T19:53:34.338Z,-0.10
2019-01-29T19:56:05.190Z,-0.19
2019-01-29T19:58:36.235Z,-0.32
2019-01-29T20:01:07.111Z,-0.43
2019-01-29T20:03:38.134Z,-0.57
2019-01-29T20:06:08.794Z,-0.73
2019-01-29T20:08:39.635Z,-0.87
2019-01-29T20:11:10.608Z,-0.99
2019-01-29T20:13:42.150Z,-1.07
2019-01-29T20:16:12.526Z,-1.05
2019-01-29T20:18:43.138Z,-1.05
2019-01-29T20:21:14.346Z,-1.12
2019-01-29T20:23:45.446Z,-1.22
2019-01-29T20:26:16.106Z,-1.37
2019-01-29T20:28:49.540Z,-1.49
2019-01-29T20:31:22.057Z,-1.58
2019-01-29T20:33:55.196Z,-1.63
2019-01-29T20:36:26.102Z,-1.69
2019-01-29T20:38:57.149Z,-1.73
2019-01-29T20:41:28.066Z,-1.75
2019-01-29T20:43:59.136Z,-1.71
2019-01-29T20:46:29.611Z,-1.74
2019-01-29T20:49:02.475Z,-1.53
2019-01-29T20:51:33.253Z,-1.61
2019-01-29T20:54:06.289Z,-1.71
2019-01-29T20:56:36.856Z,-1.76
2019-01-29T20:59:07.429Z,-1.63
2019-01-29T21:01:39.913Z,-1.76
2019-01-29T21:04:12.276Z,-1.80
2019-01-29T21:06:45.201Z,-1.85
2019-01-29T21:09:16.666Z,-1.91
2019-01-29T21:11:48.447Z,-1.97
2019-01-29T21:14:18.821Z,-1.98
2019-01-29T21:16:50.267Z,-2.03
2019-01-29T21:19:21.469Z,-2.08
2019-01-29T21:21:51.916Z,-2.05
2019-01-29T21:24:23.884Z,-2.02
2019-01-29T21:26:54.449Z,-2.04
2019-01-29T21:29:25.898Z,-2.10
2019-01-29T21:31:56.561Z,-2.13
2019-01-29T21:34:27.719Z,-2.04
2019-01-29T21:36:58.415Z,-1.90
2019-01-29T21:39:29.501Z,-1.88
2019-01-29T21:42:00.457Z,-1.86
2019-01-29T21:44:31.364Z,-1.70
2019-01-29T21:47:02.332Z,-1.64
2019-01-29T21:49:33.326Z,-1.57
2019-01-29T21:52:04.332Z,-1.62
2019-01-29T21:54:35.161Z,-1.69
2019-01-29T21:57:06.149Z,-1.75
2019-01-29T21:59:37.111Z,-1.79
2019-01-29T22:02:07.649Z,-1.86
2019-01-29T22:04:38.506Z,-1.80
2019-01-29T22:07:10.539Z,-1.76
2019-01-29T22:09:42.540Z,-1.78
2019-01-29T22:12:14.612Z,-1.81
2019-01-29T22:14:45.561Z,-1.80
2019-01-29T22:17:16.510Z,-1.80
2019-01-29T22:19:47.596Z,-1.71
2019-01-29T22:22:18.262Z,-1.69
2019-01-29T22:24:49.595Z,-1.69
2019-01-29T22:27:21.590Z,-1.66
2019-01-29T22:29:54.567Z,-1.65
2019-01-29T22:32:25.491Z,-1.70
2019-01-29T22:34:58.636Z,-1.75
2019-01-29T22:37:30.658Z,-1.77
2019-01-29T22:40:01.637Z,-1.77
2019-01-29T22:42:33.823Z,-1.80
2019-01-29T22:45:08.291Z,-1.80
2019-01-29T22:47:40.802Z,-1.77
2019-01-29T22:50:15.000Z,-1.61
2019-01-29T22:52:45.807Z,-1.47
2019-01-29T22:55:16.806Z,-1.37
2019-01-29T22:57:49.781Z,-1.20
2019-01-29T23:00:48.851Z,-0.99
2019-01-29T23:03:21.396Z,-0.95
2019-01-29T23:06:13.113Z,-0.94
2019-01-29T23:08:45.721Z,-0.90
2019-01-29T23:11:16.846Z,-0.83
2019-01-29T23:13:47.881Z,-0.67
2019-01-29T23:16:18.478Z,-0.62
2019-01-29T23:18:50.025Z,-0.62
2019-01-29T23:21:21.816Z,-0.61
2019-01-29T23:23:54.728Z,-0.55
2019-01-29T23:26:25.555Z,-0.43
2019-01-29T23:28:56.653Z,-0.15
2019-01-29T23:31:27.794Z,0.06
2019-01-29T23:33:58.647Z,0.02
2019-01-29T23:36:29.392Z,0.02
2019-01-29T23:38:59.956Z,0.01
2019-01-29T23:41:30.898Z,-0.11
2019-01-29T23:44:02.375Z,-0.18
2019-01-29T23:46:33.392Z,-0.22
2019-01-29T23:49:04.304Z,-0.26
2019-01-29T23:51:34.931Z,-0.28
2019-01-29T23:54:06.277Z,-0.25
2019-01-29T23:56:37.036Z,-0.17
2019-01-29T23:59:08.262Z,0.06
